Time,TemperatureF,DewpointF,PressureIn,WindDirection,WindDirectionDegrees,WindSpeedMPH,WindSpeedGustMPH,Humidity,HourlyPrecipIn,Conditions,Clouds,dailyrainin,SoftwareType,DateUTC
2013-05-23 00:01:00,53.5,50.9,29.95,NNE,32,7.0,17.0,91,0.00,,,0.00,VWS V14.01,2013-05-23 05:01:00,
2013-05-23 00:06:00,53.5,50.6,29.94,NNE,31,7.0,12.0,90,0.00,,,0.00,VWS V14.01,2013-05-23 05:06:00,
2013-05-23 00:11:00,53.5,49.4,29.94,NNE,14,5.0,13.0,86,0.00,,,0.00,VWS V14.01,2013-05-23 05:11:00,
2013-05-23 00:16:00,53.5,49.4,29.94,NNE,23,7.0,13.0,86,0.00,,,0.00,VWS V14.01,2013-05-23 05:16:00,
2013-05-23 00:21:00,53.5,49.1,29.94,NNE,18,6.0,14.0,85,0.00,,,0.00,VWS V14.01,2013-05-23 05:21:00,
2013-05-23 00:26:00,53.5,49.4,29.94,NNE,13,8.0,16.0,86,0.00,,,0.00,VWS V14.01,2013-05-23 05:26:00,
2013-05-23 00:31:00,53.2,49.4,29.94,NNE,21,6.0,16.0,87,0.00,,,0.00,VWS V14.01,2013-05-23 05:31:00,
2013-05-23 00:36:00,53.3,48.9,29.95,North,3,12.0,16.0,85,0.00,,,0.00,VWS V14.01,2013-05-23 05:36:00,
2013-05-23 00:41:00,53.2,48.5,29.95,North,1,11.0,16.0,84,0.00,,,0.00,VWS V14.01,2013-05-23 05:41:00,
2013-05-23 00:46:00,53.2,48.8,29.95,NE,37,9.0,17.0,85,0.00,,,0.00,VWS V14.01,2013-05-23 05:46:00,
2013-05-23 00:51:00,53.3,49.5,29.95,NE,37,6.0,13.0,87,0.00,,,0.00,VWS V14.01,2013-05-23 05:51:00,
2013-05-23 00:56:00,53.2,49.1,29.95,North,359,12.0,15.0,86,0.00,,,0.00,VWS V14.01,2013-05-23 05:56:00,
2013-05-23 01:01:00,53.2,49.4,29.95,NNE,13,11.0,15.0,87,0.00,,,0.00,VWS V14.01,2013-05-23 06:01:00,
2013-05-23 01:06:00,52.9,49.8,29.96,NNE,16,12.0,17.0,89,0.00,,,0.00,VWS V14.01,2013-05-23 06:06:00,
2013-05-23 01:11:00,52.8,50.2,29.96,North,3,10.0,17.0,91,0.00,,,0.00,VWS V14.01,2013-05-23 06:11:00,
2013-05-23 01:16:00,52.8,51.1,29.96,North,6,13.0,17.0,94,0.00,,,0.00,VWS V14.01,2013-05-23 06:16:00,
2013-05-23 01:21:00,52.3,52.0,29.95,NNE,13,12.0,16.0,99,0.00,,,0.00,VWS V14.01,2013-05-23 06:21:00,
2013-05-23 01:26:00,52.0,52.0,29.95,North,0,10.0,17.0,100,0.00,,,0.00,VWS V14.01,2013-05-23 06:26:00,
2013-05-23 01:31:00,52.0,52.0,29.95,North,7,11.0,17.0,100,0.00,,,0.00,VWS V14.01,2013-05-23 06:31:00,
2013-05-23 01:36:00,51.9,51.9,29.95,North,3,7.0,20.0,100,0.00,,,0.00,VWS V14.01,2013-05-23 06:36:00,
2013-05-23 01:41:00,51.7,51.7,29.95,NNE,14,10.0,20.0,100,0.00,,,0.00,VWS V14.01,2013-05-23 06:41:00,
2013-05-23 01:46:00,51.6,51.6,29.95,North,6,10.0,20.0,100,0.00,,,0.00,VWS V14.01,2013-05-23 06:46:00,
2013-05-23 01:51:00,51.3,51.3,29.96,North,0,12.0,13.0,100,0.00,,,0.00,VWS V14.01,2013-05-23 06:51:00,
2013-05-23 01:56:00,51.1,51.1,29.96,North,349,7.0,14.0,100,0.00,,,0.00,VWS V14.01,2013-05-23 06:56:00,
2013-05-23 02:01:00,50.8,50.8,29.96,NNE,17,13.0,17.0,100,0.00,,,0.00,VWS V14.01,2013-05-23 07:01:00,
2013-05-23 02:06:00,50.8,50.8,29.96,NNE,17,7.0,14.0,100,0.00,,,0.00,VWS V14.01,2013-05-23 07:06:00,
2013-05-23 02:11:00,50.7,50.7,29.96,North,352,9.0,17.0,100,0.00,,,0.00,VWS V14.01,2013-05-23 07:11:00,
2013-05-23 02:16:00,50.5,50.5,29.96,NNE,24,7.0,17.0,100,0.00,,,0.00,VWS V14.01,2013-05-23 07:16:00,
2013-05-23 02:21:00,50.7,50.7,29.96,North,6,7.0,12.0,100,0.00,,,0.00,VWS V14.01,2013-05-23 07:21:00,
2013-05-23 02:26:00,50.5,50.5,29.96,North,1,9.0,12.0,100,0.00,,,0.00,VWS V14.01,2013-05-23 07:26:00,
2013-05-23 02:31:00,50.4,50.4,29.96,North,0,13.0,13.0,100,0.00,,,0.00,VWS V14.01,2013-05-23 07:31:00,
2013-05-23 02:36:00,50.4,50.4,29.97,NNE,27,7.0,12.0,100,0.00,,,0.00,VWS V14.01,2013-05-23 07:36:00,
2013-05-23 02:41:00,50.5,50.5,29.97,NNE,31,10.0,12.0,100,0.00,,,0.00,VWS V14.01,2013-05-23 07:41:00,
2013-05-23 02:46:00,50.4,50.4,29.97,North,7,8.0,12.0,100,0.00,,,0.00,VWS V14.01,2013-05-23 07:46:00,
2013-05-23 02:57:00,50.5,50.5,29.96,NNE,18,5.0,14.0,100,0.00,,,0.00,VWS V14.01,2013-05-23 07:57:00,
2013-05-23 03:02:00,50.5,50.5,29.96,North,359,8.0,14.0,100,0.00,,,0.00,VWS V14.01,2013-05-23 08:02:00,
2013-05-23 03:07:00,50.5,50.5,29.95,NNE,23,5.0,11.0,100,0.00,,,0.00,VWS V14.01,2013-05-23 08:07:00,
2013-05-23 03:12:00,50.4,50.4,29.95,North,359,9.0,11.0,100,0.00,,,0.00,VWS V14.01,2013-05-23 08:12:00,
2013-05-23 03:17:00,50.4,50.4,29.95,North,6,5.0,13.0,100,0.00,,,0.00,VWS V14.01,2013-05-23 08:17:00,
2013-05-23 03:22:00,50.2,50.2,29.95,North,0,7.0,11.0,100,0.00,,,0.00,VWS V14.01,2013-05-23 08:22:00,
2013-05-23 03:27:00,50.1,50.1,29.95,NNE,16,8.0,11.0,100,0.00,,,0.00,VWS V14.01,2013-05-23 08:27:00,
2013-05-23 03:31:00,50.1,50.1,29.95,NNE,17,6.0,11.0,100,0.00,,,0.00,VWS V14.01,2013-05-23 08:31:00,
2013-05-23 03:36:00,50.1,50.1,29.96,NNE,14,5.0,7.0,100,0.00,,,0.00,VWS V14.01,2013-05-23 08:36:00,
2013-05-23 03:41:00,50.1,50.1,29.96,North,3,6.0,10.0,100,0.00,,,0.00,VWS V14.01,2013-05-23 08:41:00,
2013-05-23 03:47:00,49.9,49.9,29.96,North,4,8.0,11.0,100,0.00,,,0.00,VWS V14.01,2013-05-23 08:47:00,
2013-05-23 03:52:00,49.9,49.9,29.98,North,359,5.0,7.0,100,0.00,,,0.00,VWS V14.01,2013-05-23 08:52:00,
2013-05-23 03:57:00,49.9,49.9,29.98,North,8,5.0,9.0,100,0.00,,,0.00,VWS V14.01,2013-05-23 08:57:00,
2013-05-23 04:02:00,49.9,49.9,29.98,North,11,4.0,9.0,100,0.00,,,0.00,VWS V14.01,2013-05-23 09:02:00,
2013-05-23 04:07:00,49.8,49.8,30.00,NNE,14,0.0,3.0,100,0.00,,,0.00,VWS V14.01,2013-05-23 09:07:00,
2013-05-23 04:12:00,49.6,49.6,30.00,North,11,6.0,6.0,100,0.00,,,0.00,VWS V14.01,2013-05-23 09:12:00,
2013-05-23 04:17:00,49.5,49.5,30.00,North,0,5.0,8.0,100,0.00,,,0.00,VWS V14.01,2013-05-23 09:17:00,
2013-05-23 04:22:00,49.8,49.8,29.99,North,354,2.0,7.0,100,0.00,,,0.00,VWS V14.01,2013-05-23 09:22:00,
2013-05-23 04:27:00,49.6,49.6,29.99,North,0,3.0,7.0,100,0.00,,,0.00,VWS V14.01,2013-05-23 09:27:00,
2013-05-23 04:32:00,49.4,49.4,29.99,North,0,0.0,7.0,100,0.00,,,0.00,VWS V14.01,2013-05-23 09:32:00,
2013-05-23 04:37:00,48.9,48.9,30.01,North,0,0.0,0.0,100,0.00,,,0.00,VWS V14.01,2013-05-23 09:37:00,
2013-05-23 04:42:00,48.5,48.5,30.01,North,0,0.0,0.0,100,0.00,,,0.00,VWS V14.01,2013-05-23 09:42:00,
2013-05-23 04:47:00,48.3,48.3,30.01,North,0,0.0,2.0,100,0.00,,,0.00,VWS V14.01,2013-05-23 09:47:00,
2013-05-23 04:52:00,48.5,48.5,30.02,North,0,2.0,5.0,100,0.00,,,0.00,VWS V14.01,2013-05-23 09:52:00,
2013-05-23 04:57:00,49.1,49.1,30.02,North,3,5.0,7.0,100,0.00,,,0.00,VWS V14.01,2013-05-23 09:57:00,
2013-05-23 05:02:00,49.5,49.5,30.02,North,0,4.0,10.0,100,0.00,,,0.00,VWS V14.01,2013-05-23 10:02:00,
2013-05-23 05:07:00,49.8,49.8,30.01,North,0,5.0,9.0,100,0.00,,,0.00,VWS V14.01,2013-05-23 10:07:00,
2013-05-23 05:12:00,49.6,49.6,30.01,North,0,2.0,9.0,100,0.00,,,0.00,VWS V14.01,2013-05-23 10:12:00,
2013-05-23 05:17:00,49.8,49.8,30.01,North,353,6.0,9.0,100,0.00,,,0.00,VWS V14.01,2013-05-23 10:17:00,
2013-05-23 05:22:00,49.8,49.8,30.02,North,359,2.0,9.0,100,0.00,,,0.00,VWS V14.01,2013-05-23 10:22:00,
2013-05-23 05:27:00,49.8,49.8,30.02,North,354,5.0,9.0,100,0.00,,,0.00,VWS V14.01,2013-05-23 10:27:00,
2013-05-23 05:32:00,49.6,49.6,30.02,North,0,7.0,9.0,100,0.00,,,0.00,VWS V14.01,2013-05-23 10:32:00,
2013-05-23 05:37:00,49.9,49.9,30.02,North,359,6.0,9.0,100,0.00,,,0.00,VWS V14.01,2013-05-23 10:37:00,
2013-05-23 05:42:00,49.9,49.9,30.02,North,359,6.0,10.0,100,0.00,,,0.00,VWS V14.01,2013-05-23 10:42:00,
2013-05-23 05:47:00,49.8,49.8,30.02,North,359,8.0,10.0,100,0.00,,,0.00,VWS V14.01,2013-05-23 10:47:00,
2013-05-23 05:52:00,49.9,49.9,30.02,North,354,7.0,8.0,100,0.00,,,0.00,VWS V14.01,2013-05-23 10:52:00,
2013-05-23 05:57:00,50.2,50.2,30.02,North,0,7.0,10.0,100,0.00,,,0.00,VWS V14.01,2013-05-23 10:57:00,
2013-05-23 06:02:00,50.1,50.1,30.03,North,0,6.0,10.0,100,0.00,,,0.00,VWS V14.01,2013-05-23 11:02:00,
2013-05-23 06:07:00,50.1,50.1,30.03,North,359,5.0,8.0,100,0.00,,,0.00,VWS V14.01,2013-05-23 11:07:00,
2013-05-23 06:12:00,50.1,50.1,30.03,NNE,18,5.0,12.0,100,0.00,,,0.00,VWS V14.01,2013-05-23 11:12:00,
2013-05-23 06:17:00,49.9,49.9,30.03,North,0,7.0,12.0,100,0.00,,,0.00,VWS V14.01,2013-05-23 11:17:00,
2013-05-23 06:22:00,50.1,50.1,30.02,North,359,3.0,11.0,100,0.00,,,0.00,VWS V14.01,2013-05-23 11:22:00,
2013-05-23 06:27:00,50.1,50.1,30.02,North,359,0.0,11.0,100,0.00,,,0.00,VWS V14.01,2013-05-23 11:27:00,
2013-05-23 06:32:00,49.9,49.9,30.02,North,359,0.0,11.0,100,0.00,,,0.00,VWS V14.01,2013-05-23 11:32:00,
2013-05-23 06:37:00,49.9,49.9,30.05,North,359,0.0,2.0,100,0.00,,,0.00,VWS V14.01,2013-05-23 11:37:00,
2013-05-23 06:42:00,49.8,49.8,30.05,North,359,0.0,2.0,100,0.00,,,0.00,VWS V14.01,2013-05-23 11:42:00,
2013-05-23 06:47:00,49.8,49.8,30.05,North,359,1.0,3.0,100,0.00,,,0.00,VWS V14.01,2013-05-23 11:47:00,
2013-05-23 06:52:00,49.8,49.8,30.06,North,359,0.0,1.0,100,0.00,,,0.00,VWS V14.01,2013-05-23 11:52:00,
2013-05-23 06:57:00,49.8,49.8,30.06,North,359,0.0,2.0,100,0.00,,,0.00,VWS V14.01,2013-05-23 11:57:00,
2013-05-23 07:02:00,50.1,50.1,30.06,North,359,2.0,5.0,100,0.00,,,0.00,VWS V14.01,2013-05-23 12:02:00,
2013-05-23 07:07:00,50.1,50.1,30.05,North,359,0.0,5.0,100,0.00,,,0.00,VWS V14.01,2013-05-23 12:07:00,
2013-05-23 07:12:00,50.2,50.2,30.05,North,359,0.0,8.0,100,0.00,,,0.00,VWS V14.01,2013-05-23 12:12:00,
2013-05-23 07:17:00,50.4,50.4,30.05,North,359,6.0,8.0,100,0.00,,,0.00,VWS V14.01,2013-05-23 12:17:00,
2013-05-23 07:22:00,50.4,50.4,30.07,North,0,4.0,8.0,100,0.00,,,0.00,VWS V14.01,2013-05-23 12:22:00,
2013-05-23 07:27:00,50.7,50.7,30.07,North,0,4.0,8.0,100,0.00,,,0.00,VWS V14.01,2013-05-23 12:27:00,
2013-05-23 07:32:00,50.7,50.7,30.07,North,359,5.0,8.0,100,0.00,,,0.00,VWS V14.01,2013-05-23 12:32:00,
2013-05-23 07:37:00,50.8,50.8,30.06,North,353,5.0,8.0,100,0.00,,,0.00,VWS V14.01,2013-05-23 12:37:00,
2013-05-23 07:42:00,50.8,50.8,30.06,North,356,5.0,8.0,100,0.00,,,0.00,VWS V14.01,2013-05-23 12:42:00,
2013-05-23 07:47:00,51.0,51.0,30.06,NNE,13,7.0,10.0,100,0.00,,,0.00,VWS V14.01,2013-05-23 12:47:00,
2013-05-23 07:52:00,51.0,51.0,30.06,NNE,17,5.0,10.0,100,0.00,,,0.00,VWS V14.01,2013-05-23 12:52:00,
2013-05-23 07:57:00,51.1,51.1,30.06,NNE,27,6.0,11.0,100,0.00,,,0.00,VWS V14.01,2013-05-23 12:57:00,
2013-05-23 08:02:00,51.3,51.3,30.06,NE,47,2.0,11.0,100,0.00,,,0.00,VWS V14.01,2013-05-23 13:02:00,
2013-05-23 08:07:00,51.4,51.4,30.04,NE,34,6.0,11.0,100,0.00,,,0.00,VWS V14.01,2013-05-23 13:07:00,
2013-05-23 08:12:00,51.4,51.4,30.04,North,0,6.0,11.0,100,0.00,,,0.00,VWS V14.01,2013-05-23 13:12:00,
2013-05-23 08:17:00,51.3,51.3,30.04,NE,47,5.0,11.0,100,0.00,,,0.00,VWS V14.01,2013-05-23 13:17:00,
2013-05-23 08:22:00,51.4,51.4,30.05,NNE,25,7.0,10.0,100,0.00,,,0.00,VWS V14.01,2013-05-23 13:22:00,
2013-05-23 08:27:00,51.6,51.6,30.05,NNE,20,8.0,12.0,100,0.00,,,0.00,VWS V14.01,2013-05-23 13:27:00,
2013-05-23 08:32:00,51.4,51.4,30.05,NE,41,9.0,12.0,100,0.00,,,0.00,VWS V14.01,2013-05-23 13:32:00,
2013-05-23 08:37:00,51.0,51.0,30.06,NNE,30,7.0,13.0,100,0.00,,,0.00,VWS V14.01,2013-05-23 13:37:00,
2013-05-23 08:42:00,51.0,51.0,30.06,NE,51,9.0,14.0,100,0.00,,,0.00,VWS V14.01,2013-05-23 13:42:00,
2013-05-23 08:47:00,51.0,51.0,30.06,NE,45,5.0,14.0,100,0.00,,,0.00,VWS V14.01,2013-05-23 13:47:00,
2013-05-23 08:52:00,51.3,51.3,30.06,NE,35,8.0,10.0,100,0.00,,,0.00,VWS V14.01,2013-05-23 13:52:00,
2013-05-23 08:57:00,51.4,51.4,30.06,NE,45,6.0,10.0,100,0.00,,,0.00,VWS V14.01,2013-05-23 13:57:00,
2013-05-23 09:02:00,51.4,51.4,30.06,NE,48,10.0,10.0,100,0.00,,,0.00,VWS V14.01,2013-05-23 14:02:00,
2013-05-23 09:07:00,51.3,51.3,30.07,NE,38,6.0,13.0,100,0.00,,,0.00,VWS V14.01,2013-05-23 14:07:00,
2013-05-23 09:12:00,51.3,51.3,30.07,NE,45,7.0,13.0,100,0.00,,,0.00,VWS V14.01,2013-05-23 14:12:00,
2013-05-23 09:17:00,51.3,51.3,30.07,NE,42,8.0,14.0,100,0.00,,,0.00,VWS V14.01,2013-05-23 14:17:00,
2013-05-23 09:22:00,51.1,51.1,30.07,NE,41,8.0,17.0,100,0.00,,,0.00,VWS V14.01,2013-05-23 14:22:00,
2013-05-23 09:27:00,51.4,51.4,30.07,NE,37,10.0,17.0,100,0.00,,,0.00,VWS V14.01,2013-05-23 14:27:00,
2013-05-23 09:32:00,51.1,51.1,30.07,NE,40,12.0,17.0,100,0.00,,,0.00,VWS V14.01,2013-05-23 14:32:00,
2013-05-23 09:37:00,51.1,51.1,30.05,NE,49,12.0,17.0,100,0.00,,,0.00,VWS V14.01,2013-05-23 14:37:00,
2013-05-23 09:42:00,50.7,50.7,30.05,NNE,32,10.0,17.0,100,0.00,,,0.00,VWS V14.01,2013-05-23 14:42:00,
2013-05-23 09:47:00,50.8,50.8,30.05,NE,49,14.0,19.0,100,0.00,,,0.00,VWS V14.01,2013-05-23 14:47:00,
2013-05-23 09:52:00,50.2,50.2,30.06,NNE,32,11.0,18.0,100,0.00,,,0.00,VWS V14.01,2013-05-23 14:52:00,
2013-05-23 09:57:00,50.8,50.8,30.06,ENE,66,10.0,18.0,100,0.00,,,0.00,VWS V14.01,2013-05-23 14:57:00,
2013-05-23 10:02:00,50.2,50.2,30.06,ENE,59,11.0,18.0,100,0.00,,,0.00,VWS V14.01,2013-05-23 15:02:00,
2013-05-23 10:07:00,50.2,50.2,30.08,NE,44,11.0,17.0,100,0.00,,,0.00,VWS V14.01,2013-05-23 15:07:00,
2013-05-23 10:12:00,50.1,50.1,30.08,NE,47,10.0,17.0,100,0.00,,,0.00,VWS V14.01,2013-05-23 15:12:00,
2013-05-23 10:17:00,50.1,50.1,30.08,NE,55,5.0,17.0,100,0.00,,,0.00,VWS V14.01,2013-05-23 15:17:00,
2013-05-23 10:22:00,50.7,50.7,30.08,NE,44,6.0,11.0,100,0.00,,,0.00,VWS V14.01,2013-05-23 15:22:00,
2013-05-23 10:27:00,50.5,50.5,30.08,NNE,28,10.0,16.0,100,0.00,,,0.00,VWS V14.01,2013-05-23 15:27:00,
2013-05-23 10:32:00,50.4,50.4,30.06,NNE,31,12.0,17.0,100,0.00,,,0.00,VWS V14.01,2013-05-23 15:32:00,
2013-05-23 10:37:00,50.2,50.2,30.06,NE,45,17.0,18.0,100,0.00,,,0.00,VWS V14.01,2013-05-23 15:37:00,
2013-05-23 10:42:00,50.4,50.4,30.06,NE,40,10.0,19.0,100,0.00,,,0.00,VWS V14.01,2013-05-23 15:42:00,
2013-05-23 10:47:00,50.5,50.5,30.08,NE,38,11.0,19.0,100,0.00,,,0.00,VWS V14.01,2013-05-23 15:47:00,
2013-05-23 10:52:00,50.5,50.5,30.08,NNE,27,10.0,13.0,100,0.00,,,0.00,VWS V14.01,2013-05-23 15:52:00,
2013-05-23 10:57:00,50.7,50.7,30.08,NNE,32,10.0,13.0,100,0.00,,,0.00,VWS V14.01,2013-05-23 15:57:00,
2013-05-23 11:02:00,50.5,50.5,30.08,ENE,65,5.0,13.0,100,0.00,,,0.00,VWS V14.01,2013-05-23 16:02:00,
2013-05-23 11:07:00,50.5,50.5,30.08,NE,47,8.0,12.0,100,0.00,,,0.00,VWS V14.01,2013-05-23 16:07:00,
2013-05-23 11:12:00,50.5,50.5,30.08,NNE,30,10.0,13.0,100,0.00,,,0.00,VWS V14.01,2013-05-23 16:12:00,
2013-05-23 11:17:00,51.1,51.1,30.08,ENE,58,7.0,14.0,100,0.00,,,0.00,VWS V14.01,2013-05-23 16:17:00,
2013-05-23 11:22:00,51.4,51.4,30.08,NE,51,7.0,16.0,100,0.00,,,0.00,VWS V14.01,2013-05-23 16:22:00,
2013-05-23 11:27:00,51.7,51.7,30.08,NE,54,7.0,16.0,100,0.00,,,0.00,VWS V14.01,2013-05-23 16:27:00,
2013-05-23 11:32:00,51.7,51.7,30.08,ENE,58,6.0,16.0,100,0.00,,,0.00,VWS V14.01,2013-05-23 16:32:00,
2013-05-23 11:37:00,52.2,52.2,30.07,NE,51,6.0,13.0,100,0.00,,,0.00,VWS V14.01,2013-05-23 16:37:00,
2013-05-23 11:42:00,52.0,52.0,30.07,NE,38,9.0,13.0,100,0.00,,,0.00,VWS V14.01,2013-05-23 16:42:00,
2013-05-23 11:47:00,52.5,52.5,30.07,NE,49,7.0,13.0,100,0.00,,,0.00,VWS V14.01,2013-05-23 16:47:00,
2013-05-23 11:52:00,52.6,52.6,30.07,NE,49,5.0,10.0,100,0.00,,,0.00,VWS V14.01,2013-05-23 16:52:00,
2013-05-23 11:57:00,52.9,52.3,30.07,NE,45,2.0,10.0,98,0.00,,,0.00,VWS V14.01,2013-05-23 16:57:00,
2013-05-23 12:02:00,53.1,52.3,30.08,NE,38,4.0,10.0,97,0.00,,,0.00,VWS V14.01,2013-05-23 17:02:00,
2013-05-23 12:07:00,53.1,52.0,30.08,NE,44,3.0,7.0,96,0.00,,,0.00,VWS V14.01,2013-05-23 17:07:00,
2013-05-23 12:12:00,52.8,51.1,30.08,NE,47,11.0,11.0,94,0.00,,,0.00,VWS V14.01,2013-05-23 17:12:00,
2013-05-23 12:17:00,52.6,51.5,30.09,ENE,71,5.0,11.0,96,0.00,,,0.00,VWS V14.01,2013-05-23 17:17:00,
2013-05-23 12:22:00,52.8,52.0,30.09,NE,56,2.0,7.0,97,0.00,,,0.00,VWS V14.01,2013-05-23 17:22:00,
2013-05-23 12:27:00,53.2,52.1,30.09,NE,35,5.0,7.0,96,0.00,,,0.00,VWS V14.01,2013-05-23 17:27:00,
2013-05-23 12:32:00,53.3,51.6,30.09,NE,41,7.0,8.0,94,0.00,,,0.00,VWS V14.01,2013-05-23 17:32:00,
2013-05-23 12:37:00,53.3,52.8,30.09,NE,47,7.0,8.0,98,0.00,,,0.00,VWS V14.01,2013-05-23 17:37:00,
2013-05-23 12:42:00,53.3,51.9,30.09,NE,42,2.0,10.0,95,0.00,,,0.00,VWS V14.01,2013-05-23 17:42:00,
2013-05-23 12:47:00,53.6,52.2,30.09,ENE,66,1.0,10.0,95,0.00,,,0.00,VWS V14.01,2013-05-23 17:47:00,
2013-05-23 12:52:00,53.6,51.3,30.09,East,79,2.0,8.0,92,0.00,,,0.00,VWS V14.01,2013-05-23 17:52:00,
2013-05-23 12:57:00,53.9,52.2,30.09,East,79,7.0,8.0,94,0.00,,,0.00,VWS V14.01,2013-05-23 17:57:00,
2013-05-23 13:02:00,54.1,51.5,30.09,ENE,65,5.0,8.0,91,0.00,,,0.00,VWS V14.01,2013-05-23 18:02:00,
2013-05-23 13:07:00,54.5,51.3,30.09,East,83,7.0,7.0,89,0.00,,,0.00,VWS V14.01,2013-05-23 18:07:00,
2013-05-23 13:12:00,55.0,51.2,30.09,ENE,59,2.0,7.0,87,0.00,,,0.00,VWS V14.01,2013-05-23 18:12:00,
2013-05-23 13:17:00,55.4,51.3,30.09,ENE,59,0.0,7.0,86,0.00,,,0.00,VWS V14.01,2013-05-23 18:17:00,
2013-05-23 13:22:00,55.7,50.6,30.09,NE,49,2.0,7.0,83,0.00,,,0.00,VWS V14.01,2013-05-23 18:22:00,
2013-05-23 13:27:00,56.2,52.1,30.09,NE,44,3.0,10.0,86,0.00,,,0.00,VWS V14.01,2013-05-23 18:27:00,
2013-05-23 13:32:00,56.5,50.4,30.08,NE,48,2.0,10.0,80,0.00,,,0.00,VWS V14.01,2013-05-23 18:32:00,
2013-05-23 13:37:00,57.2,51.4,30.08,NE,48,6.0,6.0,81,0.00,,,0.00,VWS V14.01,2013-05-23 18:37:00,
2013-05-23 13:42:00,57.6,50.1,30.08,NE,48,5.0,6.0,76,0.00,,,0.00,VWS V14.01,2013-05-23 18:42:00,
2013-05-23 13:47:00,58.0,50.8,30.09,NE,48,4.0,7.0,77,0.00,,,0.00,VWS V14.01,2013-05-23 18:47:00,
2013-05-23 13:52:00,58.1,50.2,30.09,NE,48,2.0,8.0,75,0.00,,,0.00,VWS V14.01,2013-05-23 18:52:00,
2013-05-23 13:57:00,58.7,50.5,30.09,NE,48,6.0,8.0,74,0.00,,,0.00,VWS V14.01,2013-05-23 18:57:00,
2013-05-23 14:02:00,59.0,50.4,30.08,NE,48,3.0,8.0,73,0.00,,,0.00,VWS V14.01,2013-05-23 19:02:00,
2013-05-23 14:07:00,59.3,50.3,30.08,NE,44,5.0,6.0,72,0.00,,,0.00,VWS V14.01,2013-05-23 19:07:00,
2013-05-23 14:12:00,59.3,49.5,30.08,ENE,58,5.0,7.0,70,0.00,,,0.00,VWS V14.01,2013-05-23 19:12:00,
2013-05-23 14:17:00,59.3,49.5,30.08,ESE,102,5.0,8.0,70,0.00,,,0.00,VWS V14.01,2013-05-23 19:17:00,
2013-05-23 14:22:00,60.1,49.5,30.08,NE,51,0.0,7.0,68,0.00,,,0.00,VWS V14.01,2013-05-23 19:22:00,
2013-05-23 14:27:00,60.5,49.1,30.08,ENE,61,2.0,10.0,66,0.00,,,0.00,VWS V14.01,2013-05-23 19:27:00,
2013-05-23 14:32:00,60.5,48.7,30.07,NE,40,2.0,10.0,65,0.00,,,0.00,VWS V14.01,2013-05-23 19:32:00,
2013-05-23 14:37:00,60.4,50.2,30.07,South,189,1.0,10.0,69,0.00,,,0.00,VWS V14.01,2013-05-23 19:37:00,
2013-05-23 14:42:00,60.9,50.3,30.07,NNE,23,2.0,10.0,68,0.00,,,0.00,VWS V14.01,2013-05-23 19:42:00,
2013-05-23 14:47:00,60.7,48.9,30.07,NE,51,2.0,10.0,65,0.00,,,0.00,VWS V14.01,2013-05-23 19:47:00,
2013-05-23 14:52:00,61.6,50.1,30.07,South,178,1.0,7.0,66,0.00,,,0.00,VWS V14.01,2013-05-23 19:52:00,
2013-05-23 14:57:00,62.3,50.4,30.07,East,82,2.0,10.0,65,0.00,,,0.00,VWS V14.01,2013-05-23 19:57:00,
2013-05-23 15:02:00,62.6,48.5,30.06,South,181,1.0,10.0,60,0.00,,,0.00,VWS V14.01,2013-05-23 20:02:00,
2013-05-23 15:07:00,62.1,49.4,30.06,NE,52,7.0,12.0,63,0.00,,,0.00,VWS V14.01,2013-05-23 20:07:00,
2013-05-23 15:12:00,62.1,50.2,30.06,ENE,62,1.0,12.0,65,0.00,,,0.00,VWS V14.01,2013-05-23 20:12:00,
2013-05-23 15:17:00,62.1,50.2,30.06,NE,49,3.0,12.0,65,0.00,,,0.00,VWS V14.01,2013-05-23 20:17:00,
2013-05-23 15:22:00,62.4,49.7,30.06,ENE,62,1.0,10.0,63,0.00,,,0.00,VWS V14.01,2013-05-23 20:22:00,
2013-05-23 15:27:00,62.7,49.5,30.06,ENE,58,6.0,11.0,62,0.00,,,0.00,VWS V14.01,2013-05-23 20:27:00,
2013-05-23 15:32:00,62.6,50.7,30.06,NE,56,2.0,11.0,65,0.00,,,0.00,VWS V14.01,2013-05-23 20:32:00,
2013-05-23 15:37:00,63.1,50.7,30.06,ENE,58,0.0,6.0,64,0.00,,,0.00,VWS V14.01,2013-05-23 20:37:00,
2013-05-23 15:42:00,63.7,49.6,30.06,ENE,58,0.0,6.0,60,0.00,,,0.00,VWS V14.01,2013-05-23 20:42:00,
2013-05-23 15:47:00,63.9,49.8,30.04,ENE,58,2.0,6.0,60,0.00,,,0.00,VWS V14.01,2013-05-23 20:47:00,
2013-05-23 15:52:00,64.0,49.4,30.04,NE,47,2.0,10.0,59,0.00,,,0.00,VWS V14.01,2013-05-23 20:52:00,
2013-05-23 15:57:00,63.9,49.3,30.04,NE,49,8.0,10.0,59,0.00,,,0.00,VWS V14.01,2013-05-23 20:57:00,
2013-05-23 16:02:00,64.5,49.4,30.03,ENE,61,0.0,10.0,58,0.00,,,0.00,VWS V14.01,2013-05-23 21:02:00,
2013-05-23 16:07:00,65.0,51.2,30.03,ENE,58,2.0,12.0,61,0.00,,,0.00,VWS V14.01,2013-05-23 21:07:00,
2013-05-23 16:12:00,65.2,48.6,30.03,SE,143,2.0,12.0,55,0.00,,,0.00,VWS V14.01,2013-05-23 21:12:00,
2013-05-23 16:17:00,65.0,49.4,30.03,ENE,71,3.0,12.0,57,0.00,,,0.00,VWS V14.01,2013-05-23 21:17:00,
2013-05-23 16:22:00,65.2,48.2,30.03,NE,54,7.0,7.0,54,0.00,,,0.00,VWS V14.01,2013-05-23 21:22:00,
2013-05-23 16:27:00,65.2,48.6,30.03,NE,54,2.0,7.0,55,0.00,,,0.00,VWS V14.01,2013-05-23 21:27:00,
2013-05-23 16:32:00,65.3,49.2,30.03,SSW,202,2.0,7.0,56,0.00,,,0.00,VWS V14.01,2013-05-23 21:32:00,
2013-05-23 16:37:00,65.5,48.4,30.03,East,79,4.0,9.0,54,0.00,,,0.00,VWS V14.01,2013-05-23 21:37:00,
2013-05-23 16:42:00,65.2,47.2,30.03,East,86,5.0,9.0,52,0.00,,,0.00,VWS V14.01,2013-05-23 21:42:00,
2013-05-23 16:47:00,65.2,46.1,30.02,ENE,59,2.0,9.0,50,0.00,,,0.00,VWS V14.01,2013-05-23 21:47:00,
2013-05-23 16:52:00,65.5,46.9,30.02,ENE,64,2.0,6.0,51,0.00,,,0.00,VWS V14.01,2013-05-23 21:52:00,
2013-05-23 16:57:00,65.6,48.5,30.02,ENE,64,3.0,6.0,54,0.00,,,0.00,VWS V14.01,2013-05-23 21:57:00,
2013-05-23 17:02:00,65.8,46.7,30.02,NE,52,3.0,7.0,50,0.00,,,0.00,VWS V14.01,2013-05-23 22:02:00,
2013-05-23 17:07:00,66.0,46.8,30.02,NE,52,1.0,5.0,50,0.00,,,0.00,VWS V14.01,2013-05-23 22:07:00,
2013-05-23 17:12:00,66.4,46.7,30.02,SSW,212,3.0,8.0,49,0.00,,,0.00,VWS V14.01,2013-05-23 22:12:00,
2013-05-23 17:17:00,66.4,46.7,30.02,South,176,5.0,8.0,49,0.00,,,0.00,VWS V14.01,2013-05-23 22:17:00,
2013-05-23 17:22:00,66.8,47.0,30.02,South,178,4.0,6.0,49,0.00,,,0.00,VWS V14.01,2013-05-23 22:22:00,
2013-05-23 17:27:00,66.6,46.9,30.02,South,174,2.0,6.0,49,0.00,,,0.00,VWS V14.01,2013-05-23 22:27:00,
2013-05-23 17:32:00,66.4,46.1,30.01,NE,52,6.0,7.0,48,0.00,,,0.00,VWS V14.01,2013-05-23 22:32:00,
2013-05-23 17:37:00,66.4,47.7,30.01,South,182,0.0,7.0,51,0.00,,,0.00,VWS V14.01,2013-05-23 22:37:00,
2013-05-23 17:42:00,66.4,46.7,30.01,SE,141,0.0,14.0,49,0.00,,,0.00,VWS V14.01,2013-05-23 22:42:00,
2013-05-23 17:47:00,66.3,47.1,30.01,East,85,1.0,14.0,50,0.00,,,0.00,VWS V14.01,2013-05-23 22:47:00,
2013-05-23 17:52:00,66.0,47.9,30.01,East,86,2.0,6.0,52,0.00,,,0.00,VWS V14.01,2013-05-23 22:52:00,
2013-05-23 17:57:00,66.0,46.8,30.01,NE,44,1.0,11.0,50,0.00,,,0.00,VWS V14.01,2013-05-23 22:57:00,
2013-05-23 18:02:00,66.1,48.0,30.01,SSW,195,5.0,11.0,52,0.00,,,0.00,VWS V14.01,2013-05-23 23:02:00,
2013-05-23 18:07:00,66.0,45.8,30.01,SSE,168,2.0,7.0,48,0.00,,,0.00,VWS V14.01,2013-05-23 23:07:00,
2013-05-23 18:12:00,65.6,47.0,30.01,NE,41,3.0,7.0,51,0.00,,,0.00,VWS V14.01,2013-05-23 23:12:00,
2013-05-23 18:17:00,65.6,48.0,30.02,SW,216,3.0,7.0,53,0.00,,,0.00,VWS V14.01,2013-05-23 23:17:00,
2013-05-23 18:22:00,65.6,47.0,30.02,ESE,110,4.0,7.0,51,0.00,,,0.00,VWS V14.01,2013-05-23 23:22:00,
2013-05-23 18:27:00,65.8,47.2,30.02,SSW,206,5.0,7.0,51,0.00,,,0.00,VWS V14.01,2013-05-23 23:27:00,
2013-05-23 18:32:00,65.6,47.0,30.02,SSE,162,2.0,7.0,51,0.00,,,0.00,VWS V14.01,2013-05-23 23:32:00,
2013-05-23 18:37:00,65.5,46.9,30.02,SE,130,5.0,7.0,51,0.00,,,0.00,VWS V14.01,2013-05-23 23:37:00,
2013-05-23 18:42:00,65.6,47.5,30.02,SE,137,2.0,7.0,52,0.00,,,0.00,VWS V14.01,2013-05-23 23:42:00,
2013-05-23 18:47:00,65.8,47.7,30.01,South,172,2.0,8.0,52,0.00,,,0.00,VWS V14.01,2013-05-23 23:47:00,
2013-05-23 18:52:00,65.6,49.0,30.01,South,185,1.0,6.0,55,0.00,,,0.00,VWS V14.01,2013-05-23 23:52:00,
2013-05-23 18:57:00,65.6,47.0,30.01,South,185,2.0,6.0,51,0.00,,,0.00,VWS V14.01,2013-05-23 23:57:00,
2013-05-23 19:02:00,65.5,47.9,30.00,SE,137,1.0,6.0,53,0.00,,,0.00,VWS V14.01,2013-05-24 00:02:00,
2013-05-23 19:07:00,65.5,48.4,30.00,East,90,1.0,6.0,54,0.00,,,0.00,VWS V14.01,2013-05-24 00:07:00,
2013-05-23 19:12:00,65.5,48.9,30.00,East,90,2.0,6.0,55,0.00,,,0.00,VWS V14.01,2013-05-24 00:12:00,
2013-05-23 19:17:00,65.3,47.8,30.00,South,169,0.0,6.0,53,0.00,,,0.00,VWS V14.01,2013-05-24 00:17:00,
2013-05-23 19:22:00,65.3,47.8,30.00,South,182,2.0,7.0,53,0.00,,,0.00,VWS V14.01,2013-05-24 00:22:00,
2013-05-23 19:27:00,65.3,47.8,30.00,SE,144,3.0,7.0,53,0.00,,,0.00,VWS V14.01,2013-05-24 00:27:00,
2013-05-23 19:32:00,65.3,48.7,30.00,NE,52,0.0,10.0,55,0.00,,,0.00,VWS V14.01,2013-05-24 00:32:00,
2013-05-23 19:37:00,65.0,47.5,30.00,South,185,0.0,10.0,53,0.00,,,0.00,VWS V14.01,2013-05-24 00:37:00,
2013-05-23 19:42:00,64.8,47.8,30.00,South,179,5.0,10.0,54,0.00,,,0.00,VWS V14.01,2013-05-24 00:42:00,
2013-05-23 19:47:00,64.7,48.2,30.00,South,174,2.0,10.0,55,0.00,,,0.00,VWS V14.01,2013-05-24 00:47:00,
2013-05-23 19:52:00,64.7,48.2,30.00,South,184,1.0,6.0,55,0.00,,,0.00,VWS V14.01,2013-05-24 00:52:00,
2013-05-23 19:57:00,64.5,47.5,30.00,South,189,0.0,8.0,54,0.00,,,0.00,VWS V14.01,2013-05-24 00:57:00,
2013-05-23 20:02:00,64.5,48.0,30.00,SSE,147,5.0,8.0,55,0.00,,,0.00,VWS V14.01,2013-05-24 01:02:00,
2013-05-23 20:07:00,64.3,47.8,30.00,SE,144,0.0,5.0,55,0.00,,,0.00,VWS V14.01,2013-05-24 01:07:00,
2013-05-23 20:12:00,64.0,47.5,30.00,NE,55,2.0,7.0,55,0.00,,,0.00,VWS V14.01,2013-05-24 01:12:00,
2013-05-23 20:17:00,63.9,47.9,30.00,SSE,168,2.0,7.0,56,0.00,,,0.00,VWS V14.01,2013-05-24 01:17:00,
2013-05-23 20:22:00,63.7,47.7,30.00,South,184,4.0,8.0,56,0.00,,,0.00,VWS V14.01,2013-05-24 01:22:00,
2013-05-23 20:27:00,63.5,47.5,30.00,South,171,2.0,8.0,56,0.00,,,0.00,VWS V14.01,2013-05-24 01:27:00,
2013-05-23 20:32:00,63.4,47.5,30.02,South,171,0.0,8.0,56,0.00,,,0.00,VWS V14.01,2013-05-24 01:32:00,
2013-05-23 20:37:00,63.2,47.3,30.02,South,171,2.0,5.0,56,0.00,,,0.00,VWS V14.01,2013-05-24 01:37:00,
2013-05-23 20:42:00,63.1,47.6,30.02,SW,229,3.0,6.0,57,0.00,,,0.00,VWS V14.01,2013-05-24 01:42:00,
2013-05-23 20:47:00,62.9,47.9,30.02,SSW,196,0.0,6.0,58,0.00,,,0.00,VWS V14.01,2013-05-24 01:47:00,
2013-05-23 20:52:00,62.6,48.1,30.02,SSW,196,0.0,2.0,59,0.00,,,0.00,VWS V14.01,2013-05-24 01:52:00,
2013-05-23 20:57:00,62.3,48.2,30.02,SSW,195,2.0,4.0,60,0.00,,,0.00,VWS V14.01,2013-05-24 01:57:00,
2013-05-23 21:02:00,62.0,47.5,30.03,ESE,114,1.0,5.0,59,0.00,,,0.00,VWS V14.01,2013-05-24 02:02:00,
2013-05-23 21:07:00,61.8,48.2,30.03,ENE,64,3.0,6.0,61,0.00,,,0.00,VWS V14.01,2013-05-24 02:07:00,
2013-05-23 21:12:00,61.6,48.5,30.03,ESE,121,2.0,6.0,62,0.00,,,0.00,VWS V14.01,2013-05-24 02:12:00,
2013-05-23 21:17:00,61.3,48.6,30.03,ESE,121,0.0,6.0,63,0.00,,,0.00,VWS V14.01,2013-05-24 02:17:00,
2013-05-23 21:22:00,61.2,48.9,30.03,SSE,151,0.0,6.0,64,0.00,,,0.00,VWS V14.01,2013-05-24 02:22:00,
2013-05-23 21:27:00,60.9,48.7,30.03,SSE,151,1.0,6.0,64,0.00,,,0.00,VWS V14.01,2013-05-24 02:27:00,
2013-05-23 21:32:00,60.5,48.7,30.04,SSE,168,1.0,6.0,65,0.00,,,0.00,VWS V14.01,2013-05-24 02:32:00,
2013-05-23 21:37:00,60.4,49.0,30.04,SSE,168,0.0,3.0,66,0.00,,,0.00,VWS V14.01,2013-05-24 02:37:00,
2013-05-23 21:42:00,60.2,49.2,30.04,SSE,168,2.0,3.0,67,0.00,,,0.00,VWS V14.01,2013-05-24 02:42:00,
2013-05-23 21:47:00,60.1,49.1,30.04,SSE,168,2.0,3.0,67,0.00,,,0.00,VWS V14.01,2013-05-24 02:47:00,
2013-05-23 21:52:00,59.9,49.7,30.04,South,182,2.0,7.0,69,0.00,,,0.00,VWS V14.01,2013-05-24 02:52:00,
2013-05-23 21:57:00,59.6,49.4,30.04,SSE,158,0.0,7.0,69,0.00,,,0.00,VWS V14.01,2013-05-24 02:57:00,
2013-05-23 22:02:00,59.5,49.3,30.05,SSE,158,0.0,7.0,69,0.00,,,0.00,VWS V14.01,2013-05-24 03:02:00,
2013-05-23 22:07:00,59.3,49.5,30.05,SSE,167,1.0,7.0,70,0.00,,,0.00,VWS V14.01,2013-05-24 03:07:00,
2013-05-23 22:12:00,59.2,49.4,30.05,SSE,167,1.0,7.0,70,0.00,,,0.00,VWS V14.01,2013-05-24 03:12:00,
2013-05-23 22:17:00,59.0,49.6,30.05,SSE,167,2.0,7.0,71,0.00,,,0.00,VWS V14.01,2013-05-24 03:17:00,
2013-05-23 22:22:00,58.9,49.9,30.05,SSE,167,1.0,2.0,72,0.00,,,0.00,VWS V14.01,2013-05-24 03:22:00,
2013-05-23 22:27:00,58.7,50.1,30.05,SSE,167,2.0,4.0,73,0.00,,,0.00,VWS V14.01,2013-05-24 03:27:00,
2013-05-23 22:32:00,58.6,50.0,30.06,ESE,103,0.0,5.0,73,0.00,,,0.00,VWS V14.01,2013-05-24 03:32:00,
2013-05-23 22:37:00,58.4,50.2,30.06,ESE,103,1.0,5.0,74,0.00,,,0.00,VWS V14.01,2013-05-24 03:37:00,
2013-05-23 22:42:00,58.1,50.2,30.06,SSW,192,5.0,5.0,75,0.00,,,0.00,VWS V14.01,2013-05-24 03:42:00,
2013-05-23 22:47:00,58.0,51.5,30.04,NE,47,4.0,7.0,79,0.00,,,0.00,VWS V14.01,2013-05-24 03:47:00,
2013-05-23 22:52:00,58.1,51.6,30.04,SSE,161,1.0,6.0,79,0.00,,,0.00,VWS V14.01,2013-05-24 03:52:00,
2013-05-23 22:57:00,58.0,51.2,30.04,SSW,202,0.0,7.0,78,0.00,,,0.00,VWS V14.01,2013-05-24 03:57:00,
2013-05-23 23:01:00,58.0,51.5,30.04,SSW,202,0.0,7.0,79,0.00,,,0.00,VWS V14.01,2013-05-24 04:01:00,
2013-05-23 23:06:00,57.8,51.3,30.05,SE,141,1.0,7.0,79,0.00,,,0.00,VWS V14.01,2013-05-24 04:06:00,
2013-05-23 23:11:00,57.8,51.0,30.05,SE,143,5.0,7.0,78,0.00,,,0.00,VWS V14.01,2013-05-24 04:11:00,
2013-05-23 23:16:00,57.8,51.3,30.05,SSW,212,1.0,7.0,79,0.00,,,0.00,VWS V14.01,2013-05-24 04:16:00,
2013-05-23 23:21:00,57.6,51.1,30.05,SSW,212,0.0,3.0,79,0.00,,,0.00,VWS V14.01,2013-05-24 04:21:00,
2013-05-23 23:26:00,57.5,51.0,30.05,SSW,212,0.0,5.0,79,0.00,,,0.00,VWS V14.01,2013-05-24 04:26:00,
2013-05-23 23:31:00,57.2,50.8,30.05,NE,38,3.0,6.0,79,0.00,,,0.00,VWS V14.01,2013-05-24 04:31:00,
2013-05-23 23:36:00,57.2,51.4,30.05,ESE,110,2.0,3.0,81,0.00,,,0.00,VWS V14.01,2013-05-24 04:36:00,
2013-05-23 23:41:00,57.0,51.6,30.05,SSW,203,5.0,7.0,82,0.00,,,0.00,VWS V14.01,2013-05-24 04:41:00,
2013-05-23 23:46:00,56.9,52.1,30.05,SSW,206,2.0,7.0,84,0.00,,,0.00,VWS V14.01,2013-05-24 04:46:00,
2013-05-23 23:51:00,56.9,51.8,30.05,ENE,66,1.0,4.0,83,0.00,,,0.00,VWS V14.01,2013-05-24 04:51:00,
2013-05-23 23:56:00,56.9,51.8,30.05,East,97,0.0,4.0,83,0.00,,,0.00,VWS V14.01,2013-05-24 04:56:00,